Terminal Aerodrome Forecast
Issued by NWS

Current Version | Previous Version | Text Only | Print | Product List | Glossary On
Versions: 1 2 3 4 5 6 7 8 9 10 11 12 13 14 15 16
000
FTUS43 KICT 070818 AAA
TAFCNU
TAF AMD
KCNU 070818Z 0708/0806 17014KT P6SM VCTS BKN035CB OVC090
      TEMPO 0708/0709 -TSRA
     FM071400 16016G24KT P6SM OVC080
     FM071600 20018G25KT P6SM SCT030 BKN100
     FM080200 17010KT P6SM BKN100=

USA.gov is the U.S. government's official web portal to all federal, state and local government web resources and services.